createdAt,value
2019-01-02T00:01:43.318Z,65.39
2019-01-02T00:04:13.064Z,64.61
2019-01-02T00:06:43.574Z,64.76
2019-01-02T00:09:13.104Z,65.19
2019-01-02T00:11:42.608Z,66.21
2019-01-02T00:14:12.085Z,65.42
2019-01-02T00:16:41.560Z,65.73
2019-01-02T00:19:11.045Z,66.20
2019-01-02T00:21:40.908Z,65.81
2019-01-02T00:24:10.390Z,65.87
2019-01-02T00:26:40.357Z,65.82
2019-01-02T00:29:09.831Z,65.83
2019-01-02T00:31:39.328Z,65.81
2019-01-02T00:34:08.815Z,66.12
2019-01-02T00:36:38.292Z,66.76
2019-01-02T00:39:09.145Z,67.59
2019-01-02T00:41:38.688Z,66.59
2019-01-02T00:44:08.558Z,67.42
2019-01-02T00:46:38.031Z,68.69
2019-01-02T00:49:07.820Z,69.15
2019-01-02T00:51:37.464Z,69.96
2019-01-02T00:54:07.335Z,70.78
2019-01-02T00:56:36.821Z,70.26
2019-01-02T00:59:06.792Z,69.63
2019-01-02T01:01:36.421Z,68.91
2019-01-02T01:04:06.354Z,69.40
2019-01-02T01:06:35.842Z,69.60
2019-01-02T01:09:07.168Z,69.15
2019-01-02T01:11:36.661Z,69.25
2019-01-02T01:14:06.415Z,68.79
2019-01-02T01:16:35.919Z,68.65
2019-01-02T01:19:05.662Z,68.43
2019-01-02T01:21:35.146Z,68.60
2019-01-02T01:24:05.094Z,68.34
2019-01-02T01:26:35.555Z,68.04
2019-01-02T01:29:05.032Z,68.00
2019-01-02T01:31:34.806Z,67.70
2019-01-02T01:34:04.286Z,67.65
2019-01-02T01:36:33.768Z,67.29
2019-01-02T01:39:04.903Z,67.76
2019-01-02T01:41:34.395Z,68.60
2019-01-02T01:44:03.964Z,68.61
2019-01-02T01:46:33.465Z,68.82
2019-01-02T01:49:02.956Z,69.23
2019-01-02T01:51:32.738Z,69.50
2019-01-02T01:54:02.237Z,68.84
2019-01-02T01:56:31.753Z,68.08
2019-01-02T01:59:01.251Z,67.79
2019-01-02T02:01:30.811Z,68.26
2019-01-02T02:04:00.562Z,68.50
2019-01-02T02:06:30.057Z,67.97
2019-01-02T02:08:59.535Z,67.71
2019-01-02T02:11:29.422Z,68.25
2019-01-02T02:13:58.907Z,67.93
2019-01-02T02:16:28.406Z,67.20
2019-01-02T02:18:57.896Z,67.81
2019-01-02T02:21:27.402Z,67.70
2019-01-02T02:23:57.180Z,68.15
2019-01-02T02:26:26.688Z,67.63
2019-01-02T02:28:56.172Z,67.21
2019-01-02T02:31:25.657Z,67.29
2019-01-02T02:33:55.622Z,67.26
2019-01-02T02:36:25.407Z,67.18
2019-01-02T02:38:55.067Z,68.18
2019-01-02T02:41:24.825Z,67.85
2019-01-02T02:43:54.694Z,67.69
2019-01-02T02:46:24.473Z,67.60
2019-01-02T02:48:53.977Z,67.73
2019-01-02T02:51:23.756Z,67.01
2019-01-02T02:53:53.635Z,67.52
2019-01-02T02:56:23.399Z,67.11
2019-01-02T02:58:53.066Z,66.87
2019-01-02T03:01:22.963Z,66.47
2019-01-02T03:03:52.748Z,66.51
2019-01-02T03:06:23.680Z,66.81
2019-01-02T03:08:53.708Z,66.87
2019-01-02T03:11:23.203Z,66.49
2019-01-02T03:13:53.067Z,66.48
2019-01-02T03:16:22.835Z,66.23
2019-01-02T03:18:52.605Z,66.17
2019-01-02T03:21:22.382Z,65.84
2019-01-02T03:23:52.045Z,65.97
2019-01-02T03:26:21.528Z,65.82
2019-01-02T03:28:51.001Z,66.44
2019-01-02T03:31:20.893Z,65.68
2019-01-02T03:33:50.865Z,65.71
2019-01-02T03:36:20.391Z,65.61
2019-01-02T03:38:49.891Z,65.24
2019-01-02T03:41:19.391Z,65.10
2019-01-02T03:43:48.895Z,65.31
2019-01-02T03:46:18.393Z,65.49
2019-01-02T03:48:47.889Z,65.27
2019-01-02T03:51:17.380Z,65.31
2019-01-02T03:53:46.869Z,65.67
2019-01-02T03:56:16.369Z,65.69
2019-01-02T03:58:45.882Z,65.41
2019-01-02T04:01:15.445Z,65.87
2019-01-02T04:03:44.929Z,66.38
2019-01-02T04:06:14.419Z,66.34
2019-01-02T04:08:43.937Z,66.04
2019-01-02T04:11:13.423Z,65.86
2019-01-02T04:13:42.908Z,66.17
2019-01-02T04:16:12.395Z,66.47
2019-01-02T04:18:42.852Z,66.34
2019-01-02T04:21:12.347Z,65.99
2019-01-02T04:23:41.839Z,65.98
2019-01-02T04:26:11.344Z,66.36
2019-01-02T04:28:40.837Z,66.39
2019-01-02T04:31:10.339Z,65.84
2019-01-02T04:33:39.843Z,65.46
2019-01-02T04:36:09.356Z,65.24
2019-01-02T04:38:39.845Z,65.30
2019-01-02T04:41:09.353Z,64.69
2019-01-02T04:43:38.864Z,64.94
2019-01-02T04:46:08.381Z,64.51
2019-01-02T04:48:37.905Z,64.54
2019-01-02T04:51:07.419Z,64.73
2019-01-02T04:53:36.935Z,64.76
2019-01-02T04:56:06.438Z,64.36
2019-01-02T04:58:35.959Z,64.90
2019-01-02T05:01:05.445Z,65.49
2019-01-02T05:03:34.936Z,65.71
2019-01-02T05:06:04.412Z,65.15
2019-01-02T05:08:33.908Z,64.98
2019-01-02T05:11:03.418Z,64.85
2019-01-02T05:13:32.923Z,64.53
2019-01-02T05:16:02.411Z,65.02
2019-01-02T05:18:31.913Z,65.04
2019-01-02T05:21:01.388Z,64.68
2019-01-02T05:23:30.889Z,65.18
2019-01-02T05:26:01.331Z,65.03
2019-01-02T05:28:30.817Z,64.78
2019-01-02T05:31:00.296Z,64.72
2019-01-02T05:33:29.800Z,64.50
2019-01-02T05:35:59.287Z,64.87
2019-01-02T05:38:28.775Z,64.65
2019-01-02T05:40:58.276Z,64.57
2019-01-02T05:43:27.782Z,64.27
2019-01-02T05:45:57.290Z,64.35
2019-01-02T05:48:26.796Z,64.02
2019-01-02T05:50:56.314Z,64.07
2019-01-02T05:53:25.814Z,64.29
2019-01-02T05:55:55.315Z,64.39
2019-01-02T05:58:24.817Z,63.86
2019-01-02T06:00:54.312Z,63.60
2019-01-02T06:03:23.798Z,64.11
2019-01-02T06:05:53.290Z,64.47
2019-01-02T06:08:22.800Z,64.96
2019-01-02T06:10:52.287Z,64.87
2019-01-02T06:13:21.815Z,64.21
2019-01-02T06:15:51.840Z,64.34
2019-01-02T06:18:21.356Z,64.51
2019-01-02T06:20:50.831Z,64.56
2019-01-02T06:23:20.315Z,65.38
2019-01-02T06:25:49.805Z,65.40
2019-01-02T06:28:19.291Z,65.21
2019-01-02T06:30:48.862Z,65.32
2019-01-02T06:33:18.347Z,64.87
2019-01-02T06:35:47.872Z,63.94
2019-01-02T06:38:17.366Z,63.53
2019-01-02T06:40:46.904Z,63.73
2019-01-02T06:43:16.430Z,65.16
2019-01-02T06:45:45.913Z,64.63
2019-01-02T06:48:15.400Z,64.49
2019-01-02T06:50:44.877Z,64.44
2019-01-02T06:53:14.377Z,64.52
2019-01-02T06:55:43.847Z,64.48
2019-01-02T06:58:13.343Z,64.33
2019-01-02T07:00:44.062Z,64.41
2019-01-02T07:03:13.532Z,64.17
2019-01-02T07:05:43.034Z,63.94
2019-01-02T07:08:12.689Z,63.59
2019-01-02T07:10:42.175Z,63.35
2019-01-02T07:13:11.676Z,63.03
2019-01-02T07:15:41.164Z,63.38
2019-01-02T07:18:10.696Z,63.16
2019-01-02T07:20:40.171Z,63.50
2019-01-02T07:23:09.661Z,64.07
2019-01-02T07:25:39.156Z,63.08
2019-01-02T07:28:08.633Z,63.27
2019-01-02T07:30:38.114Z,63.00
2019-01-02T07:33:07.606Z,62.79
2019-01-02T07:36:00.693Z,62.93
2019-01-02T07:39:06.511Z,63.62
2019-01-02T07:42:18.379Z,63.65
2019-01-02T07:45:19.964Z,63.68
2019-01-02T07:48:11.462Z,63.32
2019-01-02T07:51:24.977Z,63.01
2019-01-02T07:54:44.997Z,62.88
2019-01-02T07:57:50.394Z,63.09
2019-01-02T08:01:15.979Z,63.31
2019-01-02T08:04:24.924Z,63.28
2019-01-02T08:07:40.809Z,63.39
2019-01-02T08:10:47.508Z,63.62
2019-01-02T08:13:54.506Z,63.85
2019-01-02T08:16:55.039Z,63.14
2019-01-02T08:19:49.423Z,62.40
2019-01-02T08:22:51.724Z,62.40
2019-01-02T08:25:44.957Z,62.05
2019-01-02T08:28:48.653Z,61.33
2019-01-02T08:31:29.736Z,61.42
2019-01-02T08:34:28.468Z,61.55
2019-01-02T08:37:31.863Z,61.32
2019-01-02T08:40:37.851Z,60.66
2019-01-02T08:44:00.433Z,60.52
2019-01-02T08:46:55.563Z,60.28
2019-01-02T08:49:38.382Z,60.10
2019-01-02T08:52:42.760Z,59.60
2019-01-02T08:55:55.761Z,59.90
2019-01-02T08:58:47.677Z,59.92
2019-01-02T09:01:57.112Z,59.32
2019-01-02T09:04:58.855Z,59.35
2019-01-02T09:08:04.545Z,58.88
2019-01-02T09:11:07.303Z,58.42
2019-01-02T09:14:09.384Z,58.28
2019-01-02T09:17:25.248Z,58.98
2019-01-02T09:20:30.356Z,57.96
2019-01-02T09:23:10.702Z,57.66
2019-01-02T09:26:07.692Z,56.42
2019-01-02T09:29:08.865Z,56.01
2019-01-02T09:32:12.111Z,54.94
2019-01-02T09:35:42.723Z,55.40
2019-01-02T09:38:35.874Z,54.73
2019-01-02T09:41:43.304Z,53.64
2019-01-02T09:45:01.895Z,52.76
2019-01-02T09:48:05.683Z,53.49
2019-01-02T09:51:11.972Z,53.50
2019-01-02T09:54:07.560Z,51.98
2019-01-02T09:57:00.129Z,51.79
2019-01-02T10:00:02.592Z,51.28
2019-01-02T10:03:02.332Z,51.22
2019-01-02T10:05:54.246Z,50.77
2019-01-02T10:08:46.824Z,50.50
2019-01-02T10:11:44.365Z,49.58
2019-01-02T10:14:35.372Z,49.68
2019-01-02T10:17:48.310Z,48.43
2019-01-02T10:20:49.732Z,49.48
2019-01-02T10:23:42.075Z,49.16
2019-01-02T10:26:58.776Z,48.43
2019-01-02T10:29:42.048Z,48.65
2019-01-02T10:32:59.042Z,49.18
2019-01-02T10:35:44.195Z,47.93
2019-01-02T10:38:41.075Z,48.17
2019-01-02T10:41:39.845Z,47.27
2019-01-02T10:44:30.906Z,47.64
2019-01-02T10:47:25.723Z,48.30
2019-01-02T10:50:12.881Z,48.58
2019-01-02T10:53:23.133Z,47.98
2019-01-02T10:56:35.551Z,46.93
2019-01-02T10:59:28.139Z,47.46
2019-01-02T11:02:36.710Z,47.74
2019-01-02T11:06:03.354Z,46.76
2019-01-02T11:08:50.390Z,46.33
2019-01-02T11:11:54.798Z,47.84
2019-01-02T11:14:51.337Z,47.37
2019-01-02T11:17:57.252Z,47.75
2019-01-02T11:21:02.867Z,46.66
2019-01-02T11:24:13.045Z,46.98
2019-01-02T11:27:02.580Z,46.99
2019-01-02T11:29:56.373Z,47.33
2019-01-02T11:33:09.416Z,47.26
2019-01-02T11:36:13.425Z,47.01
2019-01-02T11:39:07.599Z,47.12
2019-01-02T11:42:09.242Z,47.08
2019-01-02T11:45:11.946Z,47.64
2019-01-02T11:47:41.443Z,46.86
2019-01-02T11:50:15.309Z,46.81
2019-01-02T11:52:44.791Z,47.11
2019-01-02T11:55:14.276Z,46.59
2019-01-02T11:57:43.769Z,46.46
2019-01-02T12:00:15.990Z,45.81
2019-01-02T12:02:45.459Z,46.90
2019-01-02T12:05:15.008Z,46.33
2019-01-02T12:07:44.467Z,45.51
2019-01-02T12:10:14.057Z,45.72
2019-01-02T12:12:43.531Z,46.20
2019-01-02T12:15:13.035Z,45.32
2019-01-02T12:17:42.497Z,44.99
2019-01-02T12:20:12.149Z,45.26
2019-01-02T12:22:41.633Z,45.46
2019-01-02T12:25:11.140Z,42.44
2019-01-02T12:27:41.577Z,43.47
2019-01-02T12:30:13.670Z,43.66
2019-01-02T12:32:43.148Z,43.18
2019-01-02T12:35:12.630Z,43.31
2019-01-02T12:37:42.109Z,41.87
2019-01-02T12:40:11.587Z,42.99
2019-01-02T12:42:41.056Z,44.70
2019-01-02T12:45:10.530Z,42.42
2019-01-02T12:47:40.003Z,43.70
2019-01-02T12:50:10.039Z,43.19
2019-01-02T12:52:40.371Z,43.37
2019-01-02T12:55:09.842Z,43.63
2019-01-02T12:57:39.315Z,42.18
2019-01-02T13:00:12.345Z,42.43
2019-01-02T13:03:07.022Z,42.49
2019-01-02T13:06:10.304Z,42.43
2019-01-02T13:09:35.014Z,42.53
2019-01-02T13:12:30.232Z,42.33
2019-01-02T13:15:35.288Z,42.04
2019-01-02T13:18:30.082Z,41.83
2019-01-02T13:21:24.148Z,42.06
2019-01-02T13:24:32.352Z,42.26
2019-01-02T13:27:24.410Z,41.84
2019-01-02T13:30:40.625Z,41.76
2019-01-02T13:33:30.891Z,41.59
2019-01-02T13:36:15.857Z,41.42
2019-01-02T13:39:19.510Z,41.96
2019-01-02T13:42:06.185Z,41.63
2019-01-02T13:45:12.821Z,40.89
2019-01-02T13:47:57.092Z,41.29
2019-01-02T13:50:46.567Z,40.70
2019-01-02T13:53:16.035Z,41.13
2019-01-02T13:55:45.508Z,40.69
2019-01-02T13:58:14.971Z,40.25
2019-01-02T14:00:44.446Z,40.60
2019-01-02T14:03:13.917Z,40.77
2019-01-02T14:05:46.465Z,39.87
2019-01-02T14:08:15.938Z,40.37
2019-01-02T14:10:45.422Z,40.70
2019-01-02T14:13:14.902Z,40.55
2019-01-02T14:15:44.385Z,40.60
2019-01-02T14:18:13.927Z,40.08
2019-01-02T14:20:43.412Z,39.61
2019-01-02T14:23:12.889Z,40.03
2019-01-02T14:25:42.360Z,40.00
2019-01-02T14:28:11.844Z,40.16
2019-01-02T14:30:41.319Z,39.73
2019-01-02T14:33:11.115Z,39.64
2019-01-02T14:35:40.617Z,40.61
2019-01-02T14:38:10.104Z,40.25
2019-01-02T14:40:39.592Z,40.82
2019-01-02T14:43:09.072Z,40.73
2019-01-02T14:45:38.538Z,41.10
2019-01-02T14:48:08.012Z,41.05
2019-01-02T14:50:37.492Z,40.86
2019-01-02T14:53:06.956Z,40.92
2019-01-02T14:55:36.424Z,41.26
2019-01-02T14:58:05.900Z,41.25
2019-01-02T15:00:35.366Z,41.06
2019-01-02T15:03:04.826Z,41.77
2019-01-02T15:05:34.296Z,41.56
2019-01-02T15:08:03.760Z,41.98
2019-01-02T15:10:33.224Z,42.02
2019-01-02T15:13:02.705Z,42.08
2019-01-02T15:15:32.172Z,42.42
2019-01-02T15:18:01.641Z,42.67
2019-01-02T15:20:31.096Z,42.60
2019-01-02T15:23:00.560Z,42.91
2019-01-02T15:25:30.022Z,42.86
2019-01-02T15:27:59.517Z,42.72
2019-01-02T15:30:28.984Z,42.86
2019-01-02T15:32:58.477Z,42.76
2019-01-02T15:35:29.023Z,42.50
2019-01-02T15:37:58.519Z,42.88
2019-01-02T15:40:28.002Z,42.80
2019-01-02T15:42:57.500Z,42.97
2019-01-02T15:45:26.979Z,43.09
2019-01-02T15:47:56.477Z,43.08
2019-01-02T15:50:25.968Z,43.05
2019-01-02T15:52:55.459Z,43.24
2019-01-02T15:55:24.915Z,43.54
2019-01-02T15:57:55.152Z,44.12
2019-01-02T16:00:24.616Z,44.81
2019-01-02T16:02:54.099Z,45.08
2019-01-02T16:05:23.570Z,45.03
2019-01-02T16:07:53.057Z,45.17
2019-01-02T16:10:22.533Z,45.27
2019-01-02T16:12:52.019Z,45.43
2019-01-02T16:15:21.506Z,45.85
2019-01-02T16:17:51.065Z,45.80
2019-01-02T16:20:20.546Z,45.86
2019-01-02T16:22:50.044Z,45.78
2019-01-02T16:25:19.529Z,45.30
2019-01-02T16:27:49.023Z,45.39
2019-01-02T16:30:18.750Z,45.49
2019-01-02T16:32:49.195Z,46.23
2019-01-02T16:35:18.684Z,45.86
2019-01-02T16:37:48.144Z,45.83
2019-01-02T16:40:17.634Z,46.03
2019-01-02T16:42:47.116Z,45.65
2019-01-02T16:45:16.666Z,45.85
2019-01-02T16:47:46.160Z,45.86
2019-01-02T16:50:15.665Z,45.23
2019-01-02T16:52:45.178Z,45.28
2019-01-02T16:55:14.679Z,45.03
2019-01-02T16:57:44.169Z,44.52
2019-01-02T17:00:14.387Z,44.71
2019-01-02T17:02:43.852Z,44.76
2019-01-02T17:05:13.419Z,44.74
2019-01-02T17:07:42.960Z,44.68
2019-01-02T17:10:12.508Z,44.49
2019-01-02T17:12:42.014Z,44.59
2019-01-02T17:15:11.506Z,44.65
2019-01-02T17:17:41.026Z,44.93
2019-01-02T17:20:10.530Z,44.60
2019-01-02T17:22:39.997Z,44.49
2019-01-02T17:25:12.434Z,44.70
2019-01-02T17:27:41.897Z,44.99
2019-01-02T17:30:11.369Z,45.47
2019-01-02T17:32:40.838Z,45.28
2019-01-02T17:35:10.318Z,45.63
2019-01-02T17:37:39.789Z,45.52
2019-01-02T17:40:09.565Z,45.44
2019-01-02T17:42:40.034Z,45.63
2019-01-02T17:45:09.830Z,45.34
2019-01-02T17:47:39.315Z,45.36
2019-01-02T17:50:10.375Z,45.38
2019-01-02T17:52:40.825Z,45.60
2019-01-02T17:55:10.303Z,45.73
2019-01-02T17:57:39.829Z,45.19
2019-01-02T18:00:11.627Z,45.75
2019-01-02T18:02:41.139Z,45.94
2019-01-02T18:05:10.641Z,45.90
2019-01-02T18:07:40.137Z,46.31
2019-01-02T18:10:09.980Z,46.12
2019-01-02T18:12:39.474Z,45.91
2019-01-02T18:15:10.689Z,46.26
2019-01-02T18:17:40.177Z,45.98
2019-01-02T18:20:10.360Z,46.17
2019-01-02T18:22:39.835Z,46.43
2019-01-02T18:25:09.357Z,46.57
2019-01-02T18:27:38.838Z,46.61
2019-01-02T18:30:10.650Z,46.74
2019-01-02T18:32:40.519Z,47.13
2019-01-02T18:35:09.995Z,47.08
2019-01-02T18:37:39.478Z,47.40
2019-01-02T18:40:08.942Z,47.58
2019-01-02T18:42:38.422Z,47.80
2019-01-02T18:45:09.999Z,48.18
2019-01-02T18:47:39.204Z,48.22
2019-01-02T18:50:10.552Z,48.07
2019-01-02T18:52:40.039Z,48.12
2019-01-02T18:55:09.589Z,48.49
2019-01-02T18:57:39.071Z,48.42
2019-01-02T19:00:10.949Z,48.54
2019-01-02T19:02:40.434Z,48.58
2019-01-02T19:05:09.929Z,48.60
2019-01-02T19:07:40.528Z,49.10
2019-01-02T19:10:11.969Z,49.00
2019-01-02T19:12:41.480Z,48.61
2019-01-02T19:15:13.947Z,48.73
2019-01-02T19:17:43.471Z,48.64
2019-01-02T19:20:12.939Z,49.06
2019-01-02T19:22:42.413Z,50.18
2019-01-02T19:25:11.910Z,48.64
2019-01-02T19:27:41.397Z,48.54
2019-01-02T19:30:10.990Z,48.24
2019-01-02T19:32:40.493Z,48.21
2019-01-02T19:35:09.980Z,48.59
2019-01-02T19:37:39.460Z,48.61
2019-01-02T19:40:09.737Z,48.39
2019-01-02T19:42:39.278Z,48.64
2019-01-02T19:45:09.471Z,48.60
2019-01-02T19:47:38.991Z,48.49
2019-01-02T19:50:08.894Z,48.78
2019-01-02T19:52:38.410Z,48.83
2019-01-02T19:55:08.444Z,48.60
2019-01-02T19:57:37.940Z,48.80
2019-01-02T20:00:09.763Z,48.73
2019-01-02T20:02:39.303Z,48.71
2019-01-02T20:05:10.527Z,49.13
2019-01-02T20:07:40.052Z,48.92
2019-01-02T20:10:10.379Z,48.97
2019-01-02T20:12:39.905Z,49.19
2019-01-02T20:15:11.737Z,49.29
2019-01-02T20:17:42.191Z,49.36
2019-01-02T20:20:13.295Z,49.49
2019-01-02T20:22:42.802Z,49.65
2019-01-02T20:25:12.299Z,49.40
2019-01-02T20:27:41.818Z,49.55
2019-01-02T20:30:11.899Z,49.61
2019-01-02T20:32:41.409Z,49.83
2019-01-02T20:35:10.948Z,49.65
2019-01-02T20:37:40.505Z,49.67
2019-01-02T20:40:09.997Z,49.66
2019-01-02T20:42:39.538Z,49.77
2019-01-02T20:45:10.724Z,49.70
2019-01-02T20:47:40.261Z,49.94
2019-01-02T20:50:10.828Z,49.96
2019-01-02T20:52:40.345Z,50.07
2019-01-02T20:55:09.868Z,50.18
2019-01-02T20:57:39.370Z,50.02
2019-01-02T21:00:10.940Z,50.24
2019-01-02T21:02:40.436Z,50.56
2019-01-02T21:05:10.045Z,50.68
2019-01-02T21:07:39.571Z,50.94
2019-01-02T21:10:09.687Z,50.84
2019-01-02T21:12:39.244Z,50.86
2019-01-02T21:15:10.699Z,50.99
2019-01-02T21:17:40.218Z,50.90
2019-01-02T21:20:10.089Z,50.89
2019-01-02T21:22:39.595Z,50.73
2019-01-02T21:25:09.484Z,50.87
2019-01-02T21:27:39.025Z,50.86
2019-01-02T21:30:09.697Z,50.97
2019-01-02T21:32:39.402Z,51.09
2019-01-02T21:35:08.956Z,51.18
2019-01-02T21:37:38.498Z,51.22
2019-01-02T21:40:08.974Z,51.75
2019-01-02T21:42:39.575Z,51.99
2019-01-02T21:45:10.367Z,52.33
2019-01-02T21:47:39.895Z,52.74
2019-01-02T21:50:09.518Z,52.63
2019-01-02T21:52:39.088Z,52.48
2019-01-02T21:55:08.676Z,52.57
2019-01-02T21:57:38.141Z,52.80
2019-01-02T22:00:10.955Z,52.64
2019-01-02T22:02:40.629Z,52.63
2019-01-02T22:05:11.330Z,52.77
2019-01-02T22:07:40.825Z,52.85
2019-01-02T22:10:10.318Z,53.13
2019-01-02T22:12:39.816Z,53.40
2019-01-02T22:15:11.636Z,53.82
2019-01-02T22:17:42.073Z,54.16
2019-01-02T22:20:12.553Z,54.06
2019-01-02T22:22:42.026Z,54.09
2019-01-02T22:25:11.590Z,54.42
2019-01-02T22:27:41.066Z,54.34
2019-01-02T22:30:10.647Z,54.35
2019-01-02T22:32:40.150Z,54.08
2019-01-02T22:35:09.660Z,54.01
2019-01-02T22:37:39.137Z,54.17
2019-01-02T22:40:08.914Z,54.19
2019-01-02T22:42:38.421Z,54.10
2019-01-02T22:45:08.080Z,54.11
2019-01-02T22:47:37.584Z,54.21
2019-01-02T22:50:08.704Z,54.24
2019-01-02T22:52:38.217Z,54.32
2019-01-02T22:55:07.718Z,54.51
2019-01-02T22:57:40.278Z,54.63
2019-01-02T23:00:35.742Z,54.70
2019-01-02T23:03:27.014Z,54.87
2019-01-02T23:06:27.945Z,55.33
2019-01-02T23:09:12.116Z,55.36
2019-01-02T23:11:55.651Z,55.31
2019-01-02T23:14:44.211Z,55.77
2019-01-02T23:17:36.031Z,56.13
2019-01-02T23:20:28.780Z,56.72
2019-01-02T23:23:32.539Z,56.62
2019-01-02T23:26:20.137Z,56.70
2019-01-02T23:29:03.363Z,56.61
2019-01-02T23:31:47.906Z,56.41
2019-01-02T23:34:42.539Z,57.17
2019-01-02T23:37:29.747Z,57.33
2019-01-02T23:40:17.053Z,57.58
2019-01-02T23:43:17.611Z,57.63
2019-01-02T23:46:00.508Z,57.74
2019-01-02T23:48:42.183Z,58.21
2019-01-02T23:51:33.216Z,58.02
2019-01-02T23:54:25.423Z,57.79
2019-01-02T23:57:12.620Z,57.84
